sensor_id;sensor_type;location;lat;lon;timestamp;temperature;humidity
76102;SHT30;64830;46.910;6.354;2023-03-14T00:00:33;8.42;76.50
76102;SHT30;64830;46.910;6.354;2023-03-14T00:02:58;8.42;76.58
76102;SHT30;64830;46.910;6.354;2023-03-14T00:05:24;8.44;76.39
76102;SHT30;64830;46.910;6.354;2023-03-14T00:07:50;8.42;76.90
76102;SHT30;64830;46.910;6.354;2023-03-14T00:10:15;8.45;76.80
76102;SHT30;64830;46.910;6.354;2023-03-14T00:12:41;8.45;76.55
76102;SHT30;64830;46.910;6.354;2023-03-14T00:15:07;8.45;76.96
76102;SHT30;64830;46.910;6.354;2023-03-14T00:17:34;8.45;76.59
76102;SHT30;64830;46.910;6.354;2023-03-14T00:20:00;8.45;76.55
76102;SHT30;64830;46.910;6.354;2023-03-14T00:22:43;8.48;76.65
76102;SHT30;64830;46.910;6.354;2023-03-14T00:25:11;8.44;76.05
76102;SHT30;64830;46.910;6.354;2023-03-14T00:27:37;8.42;76.23
76102;SHT30;64830;46.910;6.354;2023-03-14T00:30:04;8.45;76.64
76102;SHT30;64830;46.910;6.354;2023-03-14T00:32:30;8.44;76.10
76102;SHT30;64830;46.910;6.354;2023-03-14T00:34:55;8.42;76.07
76102;SHT30;64830;46.910;6.354;2023-03-14T00:37:21;8.45;76.28
76102;SHT30;64830;46.910;6.354;2023-03-14T00:39:46;8.44;75.72
76102;SHT30;64830;46.910;6.354;2023-03-14T00:42:12;8.42;75.97
76102;SHT30;64830;46.910;6.354;2023-03-14T00:44:38;8.44;75.90
76102;SHT30;64830;46.910;6.354;2023-03-14T00:47:03;8.44;76.03
76102;SHT30;64830;46.910;6.354;2023-03-14T00:49:29;8.45;76.06
76102;SHT30;64830;46.910;6.354;2023-03-14T00:51:54;8.46;76.19
76102;SHT30;64830;46.910;6.354;2023-03-14T00:54:20;8.42;76.02
76102;SHT30;64830;46.910;6.354;2023-03-14T00:56:45;8.45;76.02
76102;SHT30;64830;46.910;6.354;2023-03-14T00:59:10;8.42;75.55
76102;SHT30;64830;46.910;6.354;2023-03-14T01:01:36;8.45;75.74
76102;SHT30;64830;46.910;6.354;2023-03-14T01:04:02;8.44;75.83
76102;SHT30;64830;46.910;6.354;2023-03-14T01:06:28;8.46;75.42
76102;SHT30;64830;46.910;6.354;2023-03-14T01:08:55;8.45;75.43
76102;SHT30;64830;46.910;6.354;2023-03-14T01:11:22;8.44;75.26
76102;SHT30;64830;46.910;6.354;2023-03-14T01:13:48;8.42;75.24
76102;SHT30;64830;46.910;6.354;2023-03-14T01:16:14;8.44;75.55
76102;SHT30;64830;46.910;6.354;2023-03-14T01:18:41;8.42;75.22
76102;SHT30;64830;46.910;6.354;2023-03-14T01:21:13;8.44;75.57
76102;SHT30;64830;46.910;6.354;2023-03-14T01:23:39;8.44;75.33
76102;SHT30;64830;46.910;6.354;2023-03-14T01:26:08;8.38;75.46
76102;SHT30;64830;46.910;6.354;2023-03-14T01:28:34;8.34;75.44
76102;SHT30;64830;46.910;6.354;2023-03-14T01:31:07;8.34;75.70
76102;SHT30;64830;46.910;6.354;2023-03-14T01:33:33;8.32;75.65
76102;SHT30;64830;46.910;6.354;2023-03-14T01:35:59;8.32;75.59
76102;SHT30;64830;46.910;6.354;2023-03-14T01:38:24;8.32;76.17
76102;SHT30;64830;46.910;6.354;2023-03-14T01:40:50;8.28;75.56
76102;SHT30;64830;46.910;6.354;2023-03-14T01:43:18;8.32;75.64
76102;SHT30;64830;46.910;6.354;2023-03-14T01:48:54;8.28;75.31
76102;SHT30;64830;46.910;6.354;2023-03-14T01:56:39;8.27;75.41
76102;SHT30;64830;46.910;6.354;2023-03-14T01:59:06;8.24;75.76
76102;SHT30;64830;46.910;6.354;2023-03-14T02:01:33;8.22;75.63
76102;SHT30;64830;46.910;6.354;2023-03-14T02:04:02;8.18;75.59
76102;SHT30;64830;46.910;6.354;2023-03-14T02:06:42;8.15;75.50
76102;SHT30;64830;46.910;6.354;2023-03-14T02:09:09;8.15;75.69
76102;SHT30;64830;46.910;6.354;2023-03-14T02:11:34;8.14;76.12
76102;SHT30;64830;46.910;6.354;2023-03-14T02:14:01;8.17;75.99
76102;SHT30;64830;46.910;6.354;2023-03-14T02:16:26;8.15;75.61
76102;SHT30;64830;46.910;6.354;2023-03-14T02:18:52;8.14;75.52
76102;SHT30;64830;46.910;6.354;2023-03-14T02:21:24;8.15;75.60
76102;SHT30;64830;46.910;6.354;2023-03-14T02:26:43;8.15;76.09
76102;SHT30;64830;46.910;6.354;2023-03-14T02:29:10;8.14;75.56
76102;SHT30;64830;46.910;6.354;2023-03-14T02:31:36;8.11;75.84
76102;SHT30;64830;46.910;6.354;2023-03-14T02:34:02;8.11;76.20
76102;SHT30;64830;46.910;6.354;2023-03-14T02:36:29;8.10;76.67
76102;SHT30;64830;46.910;6.354;2023-03-14T02:39:08;8.08;76.46
76102;SHT30;64830;46.910;6.354;2023-03-14T02:41:35;8.07;76.00
76102;SHT30;64830;46.910;6.354;2023-03-14T02:44:01;8.00;76.55
76102;SHT30;64830;46.910;6.354;2023-03-14T02:46:27;8.00;77.05
76102;SHT30;64830;46.910;6.354;2023-03-14T02:48:56;7.97;76.88
76102;SHT30;64830;46.910;6.354;2023-03-14T02:51:23;7.96;76.69
76102;SHT30;64830;46.910;6.354;2023-03-14T02:53:50;7.94;77.04
76102;SHT30;64830;46.910;6.354;2023-03-14T02:56:15;7.90;77.19
76102;SHT30;64830;46.910;6.354;2023-03-14T02:58:40;7.90;77.56
76102;SHT30;64830;46.910;6.354;2023-03-14T03:01:06;7.87;77.70
76102;SHT30;64830;46.910;6.354;2023-03-14T03:03:32;7.85;77.52
76102;SHT30;64830;46.910;6.354;2023-03-14T03:05:57;7.82;77.87
76102;SHT30;64830;46.910;6.354;2023-03-14T03:08:26;7.82;77.55
76102;SHT30;64830;46.910;6.354;2023-03-14T03:10:51;7.80;77.56
76102;SHT30;64830;46.910;6.354;2023-03-14T03:13:17;7.77;77.30
76102;SHT30;64830;46.910;6.354;2023-03-14T03:15:43;7.73;77.66
76102;SHT30;64830;46.910;6.354;2023-03-14T03:18:09;7.73;77.38
76102;SHT30;64830;46.910;6.354;2023-03-14T03:20:34;7.73;77.49
76102;SHT30;64830;46.910;6.354;2023-03-14T03:23:00;7.73;77.72
76102;SHT30;64830;46.910;6.354;2023-03-14T03:25:26;7.75;77.60
76102;SHT30;64830;46.910;6.354;2023-03-14T03:27:52;7.73;77.57
76102;SHT30;64830;46.910;6.354;2023-03-14T03:30:18;7.72;77.46
76102;SHT30;64830;46.910;6.354;2023-03-14T03:32:44;7.69;77.23
76102;SHT30;64830;46.910;6.354;2023-03-14T03:35:09;7.69;77.83
76102;SHT30;64830;46.910;6.354;2023-03-14T03:37:35;7.68;77.60
76102;SHT30;64830;46.910;6.354;2023-03-14T03:40:01;7.66;77.82
76102;SHT30;64830;46.910;6.354;2023-03-14T03:42:29;7.65;77.40
76102;SHT30;64830;46.910;6.354;2023-03-14T03:44:55;7.68;77.66
76102;SHT30;64830;46.910;6.354;2023-03-14T03:47:20;7.66;77.19
76102;SHT30;64830;46.910;6.354;2023-03-14T03:49:46;7.66;77.36
76102;SHT30;64830;46.910;6.354;2023-03-14T03:52:11;7.65;77.30
76102;SHT30;64830;46.910;6.354;2023-03-14T03:54:36;7.63;77.32
76102;SHT30;64830;46.910;6.354;2023-03-14T03:57:02;7.68;77.42
76102;SHT30;64830;46.910;6.354;2023-03-14T03:59:27;7.66;77.16
76102;SHT30;64830;46.910;6.354;2023-03-14T04:01:52;7.68;77.11
76102;SHT30;64830;46.910;6.354;2023-03-14T04:04:18;7.66;77.03
76102;SHT30;64830;46.910;6.354;2023-03-14T04:06:43;7.69;76.78
76102;SHT30;64830;46.910;6.354;2023-03-14T04:09:10;7.66;76.62
76102;SHT30;64830;46.910;6.354;2023-03-14T04:11:36;7.68;76.88
76102;SHT30;64830;46.910;6.354;2023-03-14T04:14:02;7.68;76.64
76102;SHT30;64830;46.910;6.354;2023-03-14T04:16:28;7.68;77.06
76102;SHT30;64830;46.910;6.354;2023-03-14T04:18:54;7.69;76.91
76102;SHT30;64830;46.910;6.354;2023-03-14T04:21:19;7.70;77.01
76102;SHT30;64830;46.910;6.354;2023-03-14T04:23:45;7.70;76.75
76102;SHT30;64830;46.910;6.354;2023-03-14T04:26:10;7.68;76.82
76102;SHT30;64830;46.910;6.354;2023-03-14T04:28:36;7.68;76.63
76102;SHT30;64830;46.910;6.354;2023-03-14T04:31:16;7.65;76.34
76102;SHT30;64830;46.910;6.354;2023-03-14T04:33:42;7.66;76.03
76102;SHT30;64830;46.910;6.354;2023-03-14T04:36:08;7.62;76.27
76102;SHT30;64830;46.910;6.354;2023-03-14T04:38:34;7.62;75.90
76102;SHT30;64830;46.910;6.354;2023-03-14T04:40:59;7.59;76.24
76102;SHT30;64830;46.910;6.354;2023-03-14T04:43:26;7.59;76.26
76102;SHT30;64830;46.910;6.354;2023-03-14T04:45:55;7.55;76.46
76102;SHT30;64830;46.910;6.354;2023-03-14T04:48:22;7.55;76.34
76102;SHT30;64830;46.910;6.354;2023-03-14T04:50:48;7.55;76.17
76102;SHT30;64830;46.910;6.354;2023-03-14T04:53:14;7.51;76.24
76102;SHT30;64830;46.910;6.354;2023-03-14T04:55:40;7.52;76.34
76102;SHT30;64830;46.910;6.354;2023-03-14T04:58:05;7.52;76.04
76102;SHT30;64830;46.910;6.354;2023-03-14T05:00:31;7.52;75.68
76102;SHT30;64830;46.910;6.354;2023-03-14T05:02:56;7.54;75.83
76102;SHT30;64830;46.910;6.354;2023-03-14T05:05:22;7.55;75.96
76102;SHT30;64830;46.910;6.354;2023-03-14T05:07:47;7.55;76.02
76102;SHT30;64830;46.910;6.354;2023-03-14T05:10:13;7.59;75.59
76102;SHT30;64830;46.910;6.354;2023-03-14T05:12:38;7.59;75.83
76102;SHT30;64830;46.910;6.354;2023-03-14T05:15:04;7.62;75.52
76102;SHT30;64830;46.910;6.354;2023-03-14T05:17:32;7.65;75.54
76102;SHT30;64830;46.910;6.354;2023-03-14T05:19:57;7.66;75.67
76102;SHT30;64830;46.910;6.354;2023-03-14T05:22:22;7.72;75.89
76102;SHT30;64830;46.910;6.354;2023-03-14T05:24:48;7.70;75.95
76102;SHT30;64830;46.910;6.354;2023-03-14T05:27:13;7.70;76.23
76102;SHT30;64830;46.910;6.354;2023-03-14T05:29:39;7.66;76.09
76102;SHT30;64830;46.910;6.354;2023-03-14T05:32:04;7.70;76.23
76102;SHT30;64830;46.910;6.354;2023-03-14T05:34:30;7.68;76.44
76102;SHT30;64830;46.910;6.354;2023-03-14T05:36:55;7.70;76.53
76102;SHT30;64830;46.910;6.354;2023-03-14T05:39:21;7.73;76.59
76102;SHT30;64830;46.910;6.354;2023-03-14T05:41:47;7.72;77.28
76102;SHT30;64830;46.910;6.354;2023-03-14T05:44:12;7.72;77.43
76102;SHT30;64830;46.910;6.354;2023-03-14T05:46:37;7.72;77.18
76102;SHT30;64830;46.910;6.354;2023-03-14T05:49:03;7.72;77.60
76102;SHT30;64830;46.910;6.354;2023-03-14T05:51:28;7.73;77.04
76102;SHT30;64830;46.910;6.354;2023-03-14T05:53:53;7.73;77.13
76102;SHT30;64830;46.910;6.354;2023-03-14T05:56:19;7.75;77.21
76102;SHT30;64830;46.910;6.354;2023-03-14T05:58:44;7.76;76.82
76102;SHT30;64830;46.910;6.354;2023-03-14T06:01:10;7.69;76.88
76102;SHT30;64830;46.910;6.354;2023-03-14T06:03:35;7.70;77.12
76102;SHT30;64830;46.910;6.354;2023-03-14T06:06:01;7.68;77.45
76102;SHT30;64830;46.910;6.354;2023-03-14T06:08:26;7.63;77.48
76102;SHT30;64830;46.910;6.354;2023-03-14T06:10:52;7.58;77.41
76102;SHT30;64830;46.910;6.354;2023-03-14T06:13:18;7.58;78.24
76102;SHT30;64830;46.910;6.354;2023-03-14T06:15:44;7.55;78.04
76102;SHT30;64830;46.910;6.354;2023-03-14T06:18:09;7.52;78.45
76102;SHT30;64830;46.910;6.354;2023-03-14T06:20:36;7.52;77.78
76102;SHT30;64830;46.910;6.354;2023-03-14T06:23:04;7.45;77.23
76102;SHT30;64830;46.910;6.354;2023-03-14T06:25:29;7.45;77.56
76102;SHT30;64830;46.910;6.354;2023-03-14T06:27:55;7.41;78.30
76102;SHT30;64830;46.910;6.354;2023-03-14T06:30:20;7.41;78.38
76102;SHT30;64830;46.910;6.354;2023-03-14T06:32:45;7.42;78.12
76102;SHT30;64830;46.910;6.354;2023-03-14T06:35:11;7.36;77.54
76102;SHT30;64830;46.910;6.354;2023-03-14T06:37:36;7.32;78.17
76102;SHT30;64830;46.910;6.354;2023-03-14T06:40:02;7.31;78.33
76102;SHT30;64830;46.910;6.354;2023-03-14T06:42:27;7.34;78.15
76102;SHT30;64830;46.910;6.354;2023-03-14T06:44:53;7.34;78.30
76102;SHT30;64830;46.910;6.354;2023-03-14T06:47:18;7.28;78.10
76102;SHT30;64830;46.910;6.354;2023-03-14T06:49:44;7.30;77.91
76102;SHT30;64830;46.910;6.354;2023-03-14T06:52:09;7.28;77.07
76102;SHT30;64830;46.910;6.354;2023-03-14T06:54:34;7.25;77.75
76102;SHT30;64830;46.910;6.354;2023-03-14T06:57:00;7.20;77.39
76102;SHT30;64830;46.910;6.354;2023-03-14T06:59:25;7.18;77.91
76102;SHT30;64830;46.910;6.354;2023-03-14T07:01:50;7.14;77.11
76102;SHT30;64830;46.910;6.354;2023-03-14T07:04:16;7.10;77.50
76102;SHT30;64830;46.910;6.354;2023-03-14T07:06:42;7.08;77.85
76102;SHT30;64830;46.910;6.354;2023-03-14T07:09:10;7.01;77.25
76102;SHT30;64830;46.910;6.354;2023-03-14T07:11:36;6.96;78.13
76102;SHT30;64830;46.910;6.354;2023-03-14T07:14:02;6.95;78.23
76102;SHT30;64830;46.910;6.354;2023-03-14T07:16:27;6.95;78.19
76102;SHT30;64830;46.910;6.354;2023-03-14T07:18:57;6.96;78.22
76102;SHT30;64830;46.910;6.354;2023-03-14T07:21:23;6.96;77.94
76102;SHT30;64830;46.910;6.354;2023-03-14T07:23:48;6.95;79.12
76102;SHT30;64830;46.910;6.354;2023-03-14T07:26:14;6.86;78.43
76102;SHT30;64830;46.910;6.354;2023-03-14T07:28:39;6.83;79.00
76102;SHT30;64830;46.910;6.354;2023-03-14T07:31:05;6.82;79.33
76102;SHT30;64830;46.910;6.354;2023-03-14T07:33:31;6.82;79.05
76102;SHT30;64830;46.910;6.354;2023-03-14T07:35:56;6.85;78.94
76102;SHT30;64830;46.910;6.354;2023-03-14T07:38:21;6.85;79.37
76102;SHT30;64830;46.910;6.354;2023-03-14T07:40:47;6.85;78.98
76102;SHT30;64830;46.910;6.354;2023-03-14T07:43:12;6.89;78.77
76102;SHT30;64830;46.910;6.354;2023-03-14T07:45:38;6.87;78.56
76102;SHT30;64830;46.910;6.354;2023-03-14T07:48:03;6.89;79.10
76102;SHT30;64830;46.910;6.354;2023-03-14T07:50:28;6.90;78.97
76102;SHT30;64830;46.910;6.354;2023-03-14T07:52:54;6.90;78.86
76102;SHT30;64830;46.910;6.354;2023-03-14T07:55:20;6.92;78.59
76102;SHT30;64830;46.910;6.354;2023-03-14T07:57:45;6.95;78.95
76102;SHT30;64830;46.910;6.354;2023-03-14T08:00:11;6.95;78.94
76102;SHT30;64830;46.910;6.354;2023-03-14T08:02:38;6.99;79.11
76102;SHT30;64830;46.910;6.354;2023-03-14T08:05:03;6.97;79.15
76102;SHT30;64830;46.910;6.354;2023-03-14T08:07:29;6.99;79.30
76102;SHT30;64830;46.910;6.354;2023-03-14T08:09:54;6.99;79.16
76102;SHT30;64830;46.910;6.354;2023-03-14T08:12:20;6.97;79.14
76102;SHT30;64830;46.910;6.354;2023-03-14T08:14:45;6.97;78.69
76102;SHT30;64830;46.910;6.354;2023-03-14T08:17:11;6.92;78.90
76102;SHT30;64830;46.910;6.354;2023-03-14T08:19:36;6.89;79.21
76102;SHT30;64830;46.910;6.354;2023-03-14T08:22:02;6.89;79.53
76102;SHT30;64830;46.910;6.354;2023-03-14T08:24:28;6.90;79.30
76102;SHT30;64830;46.910;6.354;2023-03-14T08:26:53;6.95;79.04
76102;SHT30;64830;46.910;6.354;2023-03-14T08:29:18;6.97;79.11
76102;SHT30;64830;46.910;6.354;2023-03-14T08:31:44;6.96;79.40
76102;SHT30;64830;46.910;6.354;2023-03-14T08:34:09;6.96;79.40
76102;SHT30;64830;46.910;6.354;2023-03-14T08:36:35;7.00;79.36
76102;SHT30;64830;46.910;6.354;2023-03-14T08:39:00;6.97;79.38
76102;SHT30;64830;46.910;6.354;2023-03-14T08:41:26;7.00;79.56
76102;SHT30;64830;46.910;6.354;2023-03-14T08:43:52;6.96;79.73
76102;SHT30;64830;46.910;6.354;2023-03-14T08:46:18;7.00;80.19
76102;SHT30;64830;46.910;6.354;2023-03-14T08:48:44;6.97;80.06
76102;SHT30;64830;46.910;6.354;2023-03-14T08:51:11;6.96;80.24
76102;SHT30;64830;46.910;6.354;2023-03-14T08:53:38;6.89;81.47
76102;SHT30;64830;46.910;6.354;2023-03-14T08:56:04;6.83;81.35
76102;SHT30;64830;46.910;6.354;2023-03-14T08:58:31;6.82;82.09
76102;SHT30;64830;46.910;6.354;2023-03-14T09:00:57;6.78;81.40
76102;SHT30;64830;46.910;6.354;2023-03-14T09:03:23;6.75;82.13
76102;SHT30;64830;46.910;6.354;2023-03-14T09:05:51;6.61;86.96
76102;SHT30;64830;46.910;6.354;2023-03-14T09:08:16;6.40;82.96
76102;SHT30;64830;46.910;6.354;2023-03-14T09:10:42;6.27;83.62
76102;SHT30;64830;46.910;6.354;2023-03-14T09:13:08;6.18;82.74
76102;SHT30;64830;46.910;6.354;2023-03-14T09:15:33;6.09;83.92
76102;SHT30;64830;46.910;6.354;2023-03-14T09:17:59;6.02;84.10
76102;SHT30;64830;46.910;6.354;2023-03-14T09:20:24;6.00;83.51
76102;SHT30;64830;46.910;6.354;2023-03-14T09:22:50;6.02;83.94
76102;SHT30;64830;46.910;6.354;2023-03-14T09:25:16;6.05;83.86
76102;SHT30;64830;46.910;6.354;2023-03-14T09:27:42;6.07;83.58
76102;SHT30;64830;46.910;6.354;2023-03-14T09:30:08;6.09;83.61
76102;SHT30;64830;46.910;6.354;2023-03-14T09:32:35;6.13;83.38
76102;SHT30;64830;46.910;6.354;2023-03-14T09:35:00;6.23;83.64
76102;SHT30;64830;46.910;6.354;2023-03-14T09:37:26;6.27;83.53
76102;SHT30;64830;46.910;6.354;2023-03-14T09:39:51;6.28;83.72
76102;SHT30;64830;46.910;6.354;2023-03-14T09:42:21;6.31;83.43
76102;SHT30;64830;46.910;6.354;2023-03-14T09:45:02;6.35;83.09
76102;SHT30;64830;46.910;6.354;2023-03-14T09:47:33;6.33;83.54
76102;SHT30;64830;46.910;6.354;2023-03-14T09:50:00;6.34;83.59
76102;SHT30;64830;46.910;6.354;2023-03-14T09:52:30;6.37;84.09
76102;SHT30;64830;46.910;6.354;2023-03-14T09:55:05;6.45;84.23
76102;SHT30;64830;46.910;6.354;2023-03-14T09:57:33;6.49;83.73
76102;SHT30;64830;46.910;6.354;2023-03-14T10:00:26;6.53;84.02
76102;SHT30;64830;46.910;6.354;2023-03-14T10:02:59;6.56;84.72
76102;SHT30;64830;46.910;6.354;2023-03-14T10:05:27;6.55;85.16
76102;SHT30;64830;46.910;6.354;2023-03-14T10:07:55;6.58;85.45
76102;SHT30;64830;46.910;6.354;2023-03-14T10:10:23;6.62;86.64
76102;SHT30;64830;46.910;6.354;2023-03-14T10:13:20;6.64;86.65
76102;SHT30;64830;46.910;6.354;2023-03-14T10:18:25;6.27;82.67
76102;SHT30;64830;46.910;6.354;2023-03-14T10:21:20;5.78;83.28
76102;SHT30;64830;46.910;6.354;2023-03-14T10:23:47;5.55;82.62
76102;SHT30;64830;46.910;6.354;2023-03-14T10:26:15;5.28;82.79
76102;SHT30;64830;46.910;6.354;2023-03-14T10:28:46;5.12;82.15
76102;SHT30;64830;46.910;6.354;2023-03-14T10:31:13;5.07;83.01
76102;SHT30;64830;46.910;6.354;2023-03-14T10:33:39;5.09;82.90
76102;SHT30;64830;46.910;6.354;2023-03-14T10:36:31;5.12;82.75
76102;SHT30;64830;46.910;6.354;2023-03-14T10:39:15;5.01;81.07
76102;SHT30;64830;46.910;6.354;2023-03-14T10:41:48;4.95;81.32
76102;SHT30;64830;46.910;6.354;2023-03-14T10:44:19;4.86;81.58
76102;SHT30;64830;46.910;6.354;2023-03-14T10:46:45;4.90;81.66
76102;SHT30;64830;46.910;6.354;2023-03-14T10:49:26;4.97;81.07
76102;SHT30;64830;46.910;6.354;2023-03-14T10:51:53;5.05;81.81
76102;SHT30;64830;46.910;6.354;2023-03-14T10:54:22;5.13;81.35
76102;SHT30;64830;46.910;6.354;2023-03-14T10:57:00;5.19;81.83
76102;SHT30;64830;46.910;6.354;2023-03-14T10:59:38;5.24;80.92
76102;SHT30;64830;46.910;6.354;2023-03-14T11:05:15;5.28;80.90
76102;SHT30;64830;46.910;6.354;2023-03-14T11:07:44;5.23;79.38
76102;SHT30;64830;46.910;6.354;2023-03-14T11:16:11;5.23;80.72
76102;SHT30;64830;46.910;6.354;2023-03-14T11:26:49;5.22;80.83
76102;SHT30;64830;46.910;6.354;2023-03-14T11:31:55;5.30;81.01
76102;SHT30;64830;46.910;6.354;2023-03-14T11:34:35;5.34;81.71
76102;SHT30;64830;46.910;6.354;2023-03-14T11:37:10;5.40;80.58
76102;SHT30;64830;46.910;6.354;2023-03-14T11:39:39;5.44;80.89
76102;SHT30;64830;46.910;6.354;2023-03-14T11:42:11;5.47;80.65
76102;SHT30;64830;46.910;6.354;2023-03-14T11:44:39;5.56;79.58
76102;SHT30;64830;46.910;6.354;2023-03-14T11:47:15;5.62;80.36
76102;SHT30;64830;46.910;6.354;2023-03-14T11:49:50;5.68;79.96
76102;SHT30;64830;46.910;6.354;2023-03-14T11:54:57;5.78;78.75
76102;SHT30;64830;46.910;6.354;2023-03-14T11:57:23;5.89;79.42
76102;SHT30;64830;46.910;6.354;2023-03-14T12:05:28;6.14;75.63
76102;SHT30;64830;46.910;6.354;2023-03-14T12:10:24;6.21;76.66
76102;SHT30;64830;46.910;6.354;2023-03-14T12:12:50;6.23;76.02
76102;SHT30;64830;46.910;6.354;2023-03-14T12:15:21;6.18;74.78
76102;SHT30;64830;46.910;6.354;2023-03-14T12:17:53;6.11;74.47
76102;SHT30;64830;46.910;6.354;2023-03-14T12:25:18;6.10;75.40
76102;SHT30;64830;46.910;6.354;2023-03-14T12:30:40;6.06;76.22
76102;SHT30;64830;46.910;6.354;2023-03-14T12:35:35;5.89;78.74
76102;SHT30;64830;46.910;6.354;2023-03-14T12:38:03;5.82;79.63
76102;SHT30;64830;46.910;6.354;2023-03-14T12:40:33;5.73;80.34
76102;SHT30;64830;46.910;6.354;2023-03-14T12:43:02;5.65;79.71
76102;SHT30;64830;46.910;6.354;2023-03-14T12:45:31;5.59;79.85
76102;SHT30;64830;46.910;6.354;2023-03-14T12:48:10;5.50;80.06
76102;SHT30;64830;46.910;6.354;2023-03-14T12:50:54;5.45;81.28
76102;SHT30;64830;46.910;6.354;2023-03-14T12:53:44;5.35;81.06
76102;SHT30;64830;46.910;6.354;2023-03-14T12:56:32;5.31;81.96
76102;SHT30;64830;46.910;6.354;2023-03-14T13:01:59;5.26;81.40
76102;SHT30;64830;46.910;6.354;2023-03-14T13:04:34;5.22;80.76
76102;SHT30;64830;46.910;6.354;2023-03-14T13:07:01;5.23;81.30
76102;SHT30;64830;46.910;6.354;2023-03-14T13:12:00;5.40;80.71
76102;SHT30;64830;46.910;6.354;2023-03-14T13:14:31;5.56;81.60
76102;SHT30;64830;46.910;6.354;2023-03-14T13:17:01;5.69;81.39
76102;SHT30;64830;46.910;6.354;2023-03-14T13:19:29;5.71;80.82
76102;SHT30;64830;46.910;6.354;2023-03-14T13:22:20;5.79;81.18
76102;SHT30;64830;46.910;6.354;2023-03-14T13:24:46;5.90;80.34
76102;SHT30;64830;46.910;6.354;2023-03-14T13:27:19;5.95;80.33
76102;SHT30;64830;46.910;6.354;2023-03-14T13:29:48;6.05;81.03
76102;SHT30;64830;46.910;6.354;2023-03-14T13:32:22;6.13;80.50
76102;SHT30;64830;46.910;6.354;2023-03-14T13:34:50;6.18;80.16
76102;SHT30;64830;46.910;6.354;2023-03-14T13:37:17;6.21;80.15
76102;SHT30;64830;46.910;6.354;2023-03-14T13:39:52;6.20;80.38
76102;SHT30;64830;46.910;6.354;2023-03-14T13:42:18;6.18;79.79
76102;SHT30;64830;46.910;6.354;2023-03-14T13:44:44;6.11;78.87
76102;SHT30;64830;46.910;6.354;2023-03-14T13:47:21;6.02;80.23
76102;SHT30;64830;46.910;6.354;2023-03-14T13:49:49;5.97;80.10
76102;SHT30;64830;46.910;6.354;2023-03-14T13:52:37;5.90;79.96
76102;SHT30;64830;46.910;6.354;2023-03-14T13:55:05;5.88;80.73
76102;SHT30;64830;46.910;6.354;2023-03-14T14:02:47;5.56;80.44
76102;SHT30;64830;46.910;6.354;2023-03-14T14:05:13;5.43;80.46
76102;SHT30;64830;46.910;6.354;2023-03-14T14:07:40;5.38;80.89
76102;SHT30;64830;46.910;6.354;2023-03-14T14:10:10;5.34;81.40
76102;SHT30;64830;46.910;6.354;2023-03-14T14:12:44;5.23;81.64
76102;SHT30;64830;46.910;6.354;2023-03-14T14:15:26;5.10;82.08
76102;SHT30;64830;46.910;6.354;2023-03-14T14:17:58;5.03;82.96
76102;SHT30;64830;46.910;6.354;2023-03-14T14:20:30;5.03;82.71
76102;SHT30;64830;46.910;6.354;2023-03-14T14:22:58;5.07;82.55
76102;SHT30;64830;46.910;6.354;2023-03-14T14:25:24;5.01;82.69
76102;SHT30;64830;46.910;6.354;2023-03-14T14:27:50;4.96;82.52
76102;SHT30;64830;46.910;6.354;2023-03-14T14:32:45;4.83;83.04
76102;SHT30;64830;46.910;6.354;2023-03-14T14:35:23;4.81;82.32
76102;SHT30;64830;46.910;6.354;2023-03-14T14:37:49;4.75;82.36
76102;SHT30;64830;46.910;6.354;2023-03-14T14:42:43;4.69;82.34
76102;SHT30;64830;46.910;6.354;2023-03-14T14:45:17;4.62;81.81
76102;SHT30;64830;46.910;6.354;2023-03-14T14:48:21;4.55;81.91
76102;SHT30;64830;46.910;6.354;2023-03-14T14:51:01;4.51;82.85
76102;SHT30;64830;46.910;6.354;2023-03-14T14:56:15;4.50;84.14
76102;SHT30;64830;46.910;6.354;2023-03-14T14:58:44;4.51;83.51
76102;SHT30;64830;46.910;6.354;2023-03-14T15:03:42;4.48;82.58
76102;SHT30;64830;46.910;6.354;2023-03-14T15:06:08;4.53;82.46
76102;SHT30;64830;46.910;6.354;2023-03-14T15:08:37;4.50;82.36
76102;SHT30;64830;46.910;6.354;2023-03-14T15:11:02;4.48;82.09
76102;SHT30;64830;46.910;6.354;2023-03-14T15:13:28;4.45;83.03
76102;SHT30;64830;46.910;6.354;2023-03-14T15:15:53;4.45;82.98
76102;SHT30;64830;46.910;6.354;2023-03-14T15:18:22;4.50;83.02
76102;SHT30;64830;46.910;6.354;2023-03-14T15:20:48;4.53;83.04
76102;SHT30;64830;46.910;6.354;2023-03-14T15:23:15;4.57;83.32
76102;SHT30;64830;46.910;6.354;2023-03-14T15:25:42;4.65;83.36
76102;SHT30;64830;46.910;6.354;2023-03-14T15:28:16;4.68;83.57
76102;SHT30;64830;46.910;6.354;2023-03-14T15:30:43;4.76;84.07
76102;SHT30;64830;46.910;6.354;2023-03-14T15:33:08;4.86;84.09
76102;SHT30;64830;46.910;6.354;2023-03-14T15:35:36;4.92;84.47
76102;SHT30;64830;46.910;6.354;2023-03-14T15:38:02;5.00;84.57
76102;SHT30;64830;46.910;6.354;2023-03-14T15:40:28;5.03;84.01
76102;SHT30;64830;46.910;6.354;2023-03-14T15:42:54;5.06;83.03
76102;SHT30;64830;46.910;6.354;2023-03-14T15:45:19;5.03;83.08
76102;SHT30;64830;46.910;6.354;2023-03-14T15:47:44;4.97;83.75
76102;SHT30;64830;46.910;6.354;2023-03-14T15:50:10;4.92;82.51
76102;SHT30;64830;46.910;6.354;2023-03-14T15:52:36;4.75;80.45
76102;SHT30;64830;46.910;6.354;2023-03-14T15:55:01;4.47;80.11
76102;SHT30;64830;46.910;6.354;2023-03-14T15:57:27;4.21;80.39
76102;SHT30;64830;46.910;6.354;2023-03-14T15:59:53;4.13;80.92
76102;SHT30;64830;46.910;6.354;2023-03-14T16:02:18;4.06;81.59
76102;SHT30;64830;46.910;6.354;2023-03-14T16:04:43;4.07;82.54
76102;SHT30;64830;46.910;6.354;2023-03-14T16:07:09;4.10;82.35
76102;SHT30;64830;46.910;6.354;2023-03-14T16:09:35;4.16;82.20
76102;SHT30;64830;46.910;6.354;2023-03-14T16:12:00;4.19;82.49
76102;SHT30;64830;46.910;6.354;2023-03-14T16:14:26;4.21;82.81
76102;SHT30;64830;46.910;6.354;2023-03-14T16:16:52;4.29;82.85
76102;SHT30;64830;46.910;6.354;2023-03-14T16:19:18;4.33;82.79
76102;SHT30;64830;46.910;6.354;2023-03-14T16:21:43;4.32;82.91
76102;SHT30;64830;46.910;6.354;2023-03-14T16:24:08;4.30;82.62
76102;SHT30;64830;46.910;6.354;2023-03-14T16:26:34;4.30;82.78
76102;SHT30;64830;46.910;6.354;2023-03-14T16:29:01;4.26;83.09
76102;SHT30;64830;46.910;6.354;2023-03-14T16:31:27;4.27;83.13
76102;SHT30;64830;46.910;6.354;2023-03-14T16:33:52;4.20;84.01
76102;SHT30;64830;46.910;6.354;2023-03-14T16:36:18;4.16;83.48
76102;SHT30;64830;46.910;6.354;2023-03-14T16:38:44;4.03;83.35
76102;SHT30;64830;46.910;6.354;2023-03-14T16:41:15;3.89;83.78
76102;SHT30;64830;46.910;6.354;2023-03-14T16:43:42;3.78;83.50
76102;SHT30;64830;46.910;6.354;2023-03-14T16:46:11;3.65;83.73
76102;SHT30;64830;46.910;6.354;2023-03-14T16:48:38;3.51;85.23
76102;SHT30;64830;46.910;6.354;2023-03-14T16:51:03;3.34;84.04
76102;SHT30;64830;46.910;6.354;2023-03-14T16:53:29;3.08;84.08
76102;SHT30;64830;46.910;6.354;2023-03-14T16:55:55;2.89;84.66
76102;SHT30;64830;46.910;6.354;2023-03-14T16:58:21;2.72;85.82
76102;SHT30;64830;46.910;6.354;2023-03-14T17:00:47;2.66;84.07
76102;SHT30;64830;46.910;6.354;2023-03-14T17:03:13;2.78;84.46